createdAt,value
2019-06-26T00:01:56.338Z,58.23
2019-06-26T00:04:30.767Z,56.86
2019-06-26T00:07:04.414Z,57.34
2019-06-26T00:09:38.742Z,57.81
2019-06-26T00:12:14.666Z,58.31
2019-06-26T00:14:46.901Z,57.51
2019-06-26T00:17:21.665Z,57.25
2019-06-26T00:19:56.393Z,58.09
2019-06-26T00:22:30.917Z,58.55
2019-06-26T00:25:03.301Z,58.90
2019-06-26T00:27:36.960Z,59.22
2019-06-26T00:30:30.199Z,59.30
2019-06-26T00:33:01.899Z,59.44
2019-06-26T00:35:34.790Z,59.64
2019-06-26T00:38:09.418Z,60.20
2019-06-26T00:40:43.844Z,60.19
2019-06-26T00:43:17.258Z,60.34
2019-06-26T00:45:50.850Z,60.60
2019-06-26T00:48:25.632Z,59.66
2019-06-26T00:51:01.897Z,59.73
2019-06-26T00:53:35.946Z,59.45
2019-06-26T00:56:09.771Z,59.23
2019-06-26T00:58:43.774Z,59.13
2019-06-26T01:01:17.510Z,59.35
2019-06-26T01:03:53.598Z,58.26
2019-06-26T01:06:45.409Z,57.98
2019-06-26T01:09:19.859Z,58.26
2019-06-26T01:11:53.554Z,57.99
2019-06-26T01:14:26.638Z,57.81
2019-06-26T01:16:59.871Z,58.16
2019-06-26T01:19:34.563Z,58.49
2019-06-26T01:22:08.217Z,58.50
2019-06-26T01:24:41.863Z,58.36
2019-06-26T01:27:16.223Z,57.86
2019-06-26T01:29:48.868Z,57.94
2019-06-26T01:32:25.536Z,57.88
2019-06-26T01:34:58.939Z,58.30
2019-06-26T01:37:33.051Z,58.73
2019-06-26T01:40:08.199Z,58.17
2019-06-26T01:42:44.060Z,57.91
2019-06-26T01:45:18.001Z,57.98
2019-06-26T01:47:51.086Z,58.19
2019-06-26T01:50:26.333Z,58.61
2019-06-26T01:52:59.886Z,58.37
2019-06-26T01:55:34.828Z,58.99
2019-06-26T01:58:10.013Z,59.43
2019-06-26T02:00:45.294Z,59.97
2019-06-26T02:03:18.078Z,60.36
2019-06-26T02:05:51.859Z,61.09
2019-06-26T02:08:24.515Z,61.56
2019-06-26T02:10:58.464Z,62.62
2019-06-26T02:13:31.660Z,63.05
2019-06-26T02:16:27.914Z,63.67
2019-06-26T02:19:02.606Z,63.94
2019-06-26T02:21:35.718Z,64.14
2019-06-26T02:24:09.755Z,64.70
2019-06-26T02:26:43.122Z,64.71
2019-06-26T02:29:15.845Z,64.68
2019-06-26T02:31:48.238Z,64.81
2019-06-26T02:34:23.495Z,64.55
2019-06-26T02:36:57.094Z,64.66
2019-06-26T02:39:29.651Z,64.41
2019-06-26T02:42:02.224Z,64.45
2019-06-26T02:44:52.300Z,64.33
2019-06-26T02:47:20.218Z,64.34
2019-06-26T02:49:48.963Z,64.13
2019-06-26T02:52:22.932Z,63.98
2019-06-26T02:54:55.545Z,63.98
2019-06-26T02:57:28.285Z,63.77
2019-06-26T03:00:02.143Z,63.76
2019-06-26T03:02:35.199Z,63.75
2019-06-26T03:05:28.907Z,63.59
2019-06-26T03:08:01.935Z,63.71
2019-06-26T03:10:35.013Z,63.78
2019-06-26T03:13:07.575Z,63.78
2019-06-26T03:15:40.686Z,63.90
2019-06-26T03:18:12.950Z,64.09
2019-06-26T03:20:57.654Z,64.20
2019-06-26T03:23:43.961Z,64.25
2019-06-26T03:26:13.446Z,64.38
2019-06-26T03:28:46.756Z,64.76
2019-06-26T03:31:23.856Z,64.99
2019-06-26T03:33:58.997Z,65.56
2019-06-26T03:36:31.981Z,66.26
2019-06-26T03:39:07.718Z,66.47
2019-06-26T03:44:32.287Z,66.16
2019-06-26T03:47:05.644Z,66.23
2019-06-26T03:49:38.447Z,66.08
2019-06-26T03:52:12.759Z,65.93
2019-06-26T03:54:45.921Z,65.82
2019-06-26T03:57:17.803Z,65.22
2019-06-26T03:59:51.180Z,64.80
2019-06-26T04:02:23.307Z,64.20
2019-06-26T04:04:56.195Z,64.08
2019-06-26T04:07:27.957Z,63.78
2019-06-26T04:10:01.455Z,63.04
2019-06-26T04:12:35.021Z,62.48
2019-06-26T04:15:09.008Z,61.68
2019-06-26T04:17:43.690Z,63.12
2019-06-26T04:20:16.051Z,64.04
2019-06-26T04:22:48.262Z,62.55
2019-06-26T04:25:20.496Z,61.65
2019-06-26T04:27:54.764Z,61.80
2019-06-26T04:30:27.043Z,61.04
2019-06-26T04:32:59.614Z,59.39
2019-06-26T04:35:32.313Z,58.24
2019-06-26T04:38:04.391Z,57.60
2019-06-26T04:40:37.866Z,57.18
2019-06-26T04:43:10.599Z,57.17
2019-06-26T04:45:57.266Z,55.52
2019-06-26T04:48:18.655Z,56.28
2019-06-26T04:50:52.693Z,55.49
2019-06-26T04:53:26.208Z,54.24
2019-06-26T04:56:01.962Z,53.32
2019-06-26T04:58:34.847Z,53.93
2019-06-26T05:01:07.470Z,53.52
2019-06-26T05:03:41.217Z,52.56
2019-06-26T05:06:13.847Z,52.82
2019-06-26T05:08:49.218Z,52.83
2019-06-26T05:11:28.589Z,52.29
2019-06-26T05:14:02.596Z,52.28
2019-06-26T05:16:41.972Z,52.50
2019-06-26T05:19:15.604Z,51.47
2019-06-26T05:21:49.545Z,49.73
2019-06-26T05:24:22.318Z,52.90
2019-06-26T05:26:56.188Z,51.11
2019-06-26T05:29:28.452Z,53.04
2019-06-26T05:32:01.138Z,50.61
2019-06-26T05:34:33.655Z,50.84
2019-06-26T05:37:06.245Z,50.05
2019-06-26T05:39:40.255Z,48.30
2019-06-26T05:42:17.028Z,50.25
2019-06-26T05:44:51.350Z,51.38
2019-06-26T05:47:25.633Z,51.21
2019-06-26T05:49:59.165Z,48.04
2019-06-26T05:52:43.585Z,48.58
2019-06-26T05:55:19.296Z,48.26
2019-06-26T05:57:54.996Z,46.32
2019-06-26T06:00:29.274Z,44.56
2019-06-26T06:03:01.734Z,43.28
2019-06-26T06:05:36.443Z,42.27
2019-06-26T06:08:10.895Z,43.50
2019-06-26T06:10:48.278Z,43.75
2019-06-26T06:13:49.266Z,42.76
2019-06-26T06:16:25.864Z,45.71
2019-06-26T06:19:00.853Z,48.34
2019-06-26T06:21:35.895Z,43.39
2019-06-26T06:24:08.286Z,42.38
2019-06-26T06:26:42.621Z,41.54
2019-06-26T06:29:20.258Z,40.86
2019-06-26T06:31:52.679Z,38.99
2019-06-26T06:34:25.325Z,39.68
2019-06-26T06:36:58.854Z,39.31
2019-06-26T06:39:31.399Z,39.10
2019-06-26T06:42:05.369Z,38.09
2019-06-26T06:44:46.532Z,37.27
2019-06-26T06:47:20.725Z,36.02
2019-06-26T06:49:53.175Z,36.46
2019-06-26T06:52:33.276Z,36.77
2019-06-26T06:55:09.480Z,34.84
2019-06-26T06:57:49.984Z,34.98
2019-06-26T07:00:29.022Z,35.39
2019-06-26T07:03:09.188Z,33.79
2019-06-26T07:05:45.758Z,34.44
2019-06-26T07:09:06.299Z,32.81
2019-06-26T07:12:31.831Z,33.64
2019-06-26T07:15:16.685Z,33.39
2019-06-26T07:17:53.770Z,34.36
2019-06-26T07:20:30.194Z,34.33
2019-06-26T07:23:04.434Z,34.03
2019-06-26T07:25:43.327Z,35.03
2019-06-26T07:31:25.350Z,35.30
2019-06-26T07:34:07.113Z,35.14
2019-06-26T07:37:31.899Z,33.84
2019-06-26T07:40:05.420Z,34.34
2019-06-26T07:42:37.471Z,34.13
2019-06-26T07:45:14.992Z,34.66
2019-06-26T07:47:47.095Z,33.80
2019-06-26T07:50:20.573Z,32.99
2019-06-26T07:52:52.813Z,32.70
2019-06-26T07:55:24.771Z,31.95
2019-06-26T07:57:58.373Z,32.29
2019-06-26T08:00:31.679Z,31.75
2019-06-26T08:03:10.208Z,32.14
2019-06-26T08:05:43.229Z,33.07
2019-06-26T08:08:15.143Z,32.18
2019-06-26T08:10:47.119Z,32.08
2019-06-26T08:13:21.333Z,31.46
2019-06-26T08:15:54.297Z,31.72
2019-06-26T08:18:26.302Z,31.89
2019-06-26T08:21:11.458Z,31.58
2019-06-26T08:23:33.910Z,31.30
2019-06-26T08:26:05.925Z,30.39
2019-06-26T08:28:37.926Z,32.46
2019-06-26T08:31:10.264Z,32.94
2019-06-26T08:33:42.414Z,34.11
2019-06-26T08:36:17.221Z,35.42
2019-06-26T08:38:49.604Z,35.67
2019-06-26T08:41:21.746Z,36.61
2019-06-26T08:43:54.149Z,37.36
2019-06-26T08:46:26.042Z,39.56
2019-06-26T08:48:58.329Z,36.50
2019-06-26T08:51:31.406Z,36.21
2019-06-26T08:54:05.446Z,35.78
2019-06-26T08:56:39.711Z,36.47
2019-06-26T08:59:12.140Z,36.27
2019-06-26T09:01:44.968Z,35.98
2019-06-26T09:04:18.260Z,33.97
2019-06-26T09:06:50.519Z,33.57
2019-06-26T09:09:22.751Z,33.75
2019-06-26T09:11:54.815Z,33.84
2019-06-26T09:14:27.766Z,34.20
2019-06-26T09:17:00.559Z,34.53
2019-06-26T09:19:42.336Z,34.61
2019-06-26T09:22:15.820Z,34.95
2019-06-26T09:24:52.500Z,34.36
2019-06-26T09:27:28.081Z,33.26
2019-06-26T09:30:08.207Z,33.66
2019-06-26T09:32:42.737Z,33.23
2019-06-26T09:35:32.805Z,32.66
2019-06-26T09:38:13.981Z,31.43
2019-06-26T09:47:22.377Z,32.88
2019-06-26T09:49:57.525Z,32.77
2019-06-26T09:52:34.196Z,33.96
2019-06-26T09:55:47.293Z,33.39
2019-06-26T10:02:31.883Z,35.06
2019-06-26T10:05:23.475Z,35.28
2019-06-26T10:10:54.159Z,36.35
2019-06-26T10:13:26.503Z,35.82
2019-06-26T10:16:24.469Z,36.02
2019-06-26T10:19:09.515Z,37.10
2019-06-26T10:21:34.742Z,34.93
2019-06-26T10:24:10.036Z,34.92
2019-06-26T10:26:44.652Z,36.06
2019-06-26T10:29:19.553Z,36.79
2019-06-26T10:31:51.832Z,35.15
2019-06-26T10:34:24.133Z,36.83
2019-06-26T10:36:56.635Z,35.34
2019-06-26T10:40:16.143Z,36.61
2019-06-26T10:43:18.624Z,36.13
2019-06-26T10:46:29.585Z,36.04
2019-06-26T10:49:25.944Z,36.08
2019-06-26T10:51:45.090Z,33.53
2019-06-26T10:54:20.383Z,35.39
2019-06-26T10:56:58.301Z,35.84
2019-06-26T10:59:37.742Z,34.56
2019-06-26T11:02:10.984Z,34.92
2019-06-26T11:04:52.524Z,34.45
2019-06-26T11:07:32.196Z,33.69
2019-06-26T11:10:22.892Z,34.00
2019-06-26T11:12:56.200Z,33.13
2019-06-26T11:15:42.253Z,32.67
2019-06-26T11:18:26.353Z,32.95
2019-06-26T11:21:12.787Z,33.61
2019-06-26T11:23:51.584Z,33.20
2019-06-26T11:26:26.632Z,34.84
2019-06-26T11:29:06.140Z,33.71
2019-06-26T11:32:03.739Z,34.42
2019-06-26T11:34:53.379Z,34.04
2019-06-26T11:37:38.757Z,33.30
2019-06-26T11:40:29.820Z,33.26
2019-06-26T11:43:09.030Z,33.89
2019-06-26T11:45:58.852Z,34.89
2019-06-26T11:48:52.145Z,34.60
2019-06-26T11:51:42.880Z,33.07
2019-06-26T11:54:42.819Z,34.54
2019-06-26T11:57:24.337Z,34.35
2019-06-26T12:00:14.829Z,33.91
2019-06-26T12:03:02.829Z,33.41
2019-06-26T12:05:43.078Z,34.45
2019-06-26T12:08:26.660Z,34.30
2019-06-26T12:11:04.087Z,35.39
2019-06-26T12:13:37.488Z,36.67
2019-06-26T12:16:13.595Z,36.51
2019-06-26T12:18:50.684Z,35.05
2019-06-26T12:21:24.284Z,37.66
2019-06-26T12:23:57.476Z,37.29
2019-06-26T12:26:33.521Z,36.97
2019-06-26T12:29:06.460Z,36.48
2019-06-26T12:31:47.334Z,35.96
2019-06-26T12:34:21.038Z,35.66
2019-06-26T12:37:06.413Z,35.90
2019-06-26T12:39:42.538Z,36.66
2019-06-26T12:42:18.832Z,37.00
2019-06-26T12:44:53.876Z,37.65
2019-06-26T12:47:31.499Z,36.75
2019-06-26T12:50:08.635Z,37.95
2019-06-26T12:52:50.489Z,37.63
2019-06-26T12:55:23.794Z,36.91
2019-06-26T12:58:11.586Z,37.48
2019-06-26T13:00:30.861Z,36.88
2019-06-26T13:03:10.461Z,37.49
2019-06-26T13:05:50.285Z,36.15
2019-06-26T13:08:54.118Z,35.85
2019-06-26T13:11:48.778Z,36.65
2019-06-26T13:14:25.344Z,35.83
2019-06-26T13:17:10.962Z,36.78
2019-06-26T13:19:57.068Z,36.51
2019-06-26T13:22:36.903Z,37.22
2019-06-26T13:25:10.858Z,35.96
2019-06-26T13:28:01.597Z,36.04
2019-06-26T13:30:45.343Z,37.52
2019-06-26T13:33:21.769Z,37.87
2019-06-26T13:35:57.402Z,38.27
2019-06-26T13:38:32.494Z,39.21
2019-06-26T13:41:05.867Z,37.48
2019-06-26T13:43:41.229Z,37.90
2019-06-26T13:46:15.274Z,37.37
2019-06-26T13:48:52.542Z,38.92
2019-06-26T13:51:30.480Z,39.44
2019-06-26T13:54:07.436Z,39.93
2019-06-26T13:57:03.180Z,38.94
2019-06-26T13:59:41.240Z,39.83
2019-06-26T14:02:23.383Z,41.00
2019-06-26T14:04:56.304Z,38.52
2019-06-26T14:10:49.563Z,39.38
2019-06-26T14:16:40.223Z,38.69
2019-06-26T14:19:17.126Z,38.78
2019-06-26T14:22:05.238Z,38.42
2019-06-26T14:24:40.699Z,38.17
2019-06-26T14:27:15.305Z,38.22
2019-06-26T14:29:51.387Z,38.80
2019-06-26T14:32:26.943Z,38.38
2019-06-26T14:35:10.653Z,38.93
2019-06-26T14:37:58.004Z,39.08
2019-06-26T14:40:32.259Z,38.77
2019-06-26T14:43:12.255Z,39.43
2019-06-26T14:46:03.427Z,39.76
2019-06-26T14:48:36.998Z,38.99
2019-06-26T14:51:13.280Z,37.92
2019-06-26T14:53:45.794Z,38.65
2019-06-26T14:56:32.299Z,39.08
2019-06-26T14:59:11.464Z,38.98
2019-06-26T15:01:45.457Z,39.37
2019-06-26T15:04:19.942Z,38.82
2019-06-26T15:07:02.453Z,37.66
2019-06-26T15:09:40.670Z,37.31
2019-06-26T15:12:24.823Z,37.92
2019-06-26T15:15:01.052Z,38.42
2019-06-26T15:17:34.486Z,37.05
2019-06-26T15:20:11.731Z,37.89
2019-06-26T15:23:16.414Z,37.48
2019-06-26T15:26:26.658Z,37.95
2019-06-26T15:29:06.843Z,37.73
2019-06-26T15:31:41.305Z,38.98
2019-06-26T15:34:14.486Z,38.61
2019-06-26T15:36:54.762Z,38.01
2019-06-26T15:39:28.347Z,38.01
2019-06-26T15:42:36.528Z,40.21
2019-06-26T15:45:14.117Z,39.07
2019-06-26T15:47:48.878Z,41.14
2019-06-26T15:50:35.317Z,39.83
2019-06-26T15:53:29.949Z,41.73
2019-06-26T15:56:37.528Z,41.61
2019-06-26T15:59:24.372Z,42.69
2019-06-26T16:02:02.256Z,41.37
2019-06-26T16:04:46.918Z,41.20
2019-06-26T16:07:21.078Z,41.62
2019-06-26T16:09:54.909Z,42.64
2019-06-26T16:12:29.671Z,41.78
2019-06-26T16:15:08.958Z,41.77
2019-06-26T16:17:44.976Z,42.32
2019-06-26T16:20:20.486Z,42.90
2019-06-26T16:22:53.924Z,42.59
2019-06-26T16:25:28.767Z,41.86
2019-06-26T16:28:10.671Z,41.78
2019-06-26T16:30:46.157Z,41.47
2019-06-26T16:33:23.218Z,41.31
2019-06-26T16:36:00.257Z,41.81
2019-06-26T16:38:54.160Z,42.02
2019-06-26T16:44:25.844Z,41.70
2019-06-26T16:50:07.024Z,42.58
2019-06-26T16:52:49.362Z,42.49
2019-06-26T16:55:16.098Z,42.10
2019-06-26T17:00:36.335Z,42.16
2019-06-26T17:03:09.509Z,42.23
2019-06-26T17:05:43.811Z,42.47
2019-06-26T17:11:23.790Z,42.25
2019-06-26T17:14:03.315Z,41.93
2019-06-26T17:16:47.566Z,42.23
2019-06-26T17:19:22.620Z,42.42
2019-06-26T17:22:03.741Z,42.49
2019-06-26T17:24:38.112Z,42.67
2019-06-26T17:27:13.044Z,43.22
2019-06-26T17:29:45.711Z,43.24
2019-06-26T17:32:18.432Z,43.61
2019-06-26T17:34:52.367Z,44.11
2019-06-26T17:40:29.158Z,43.81
2019-06-26T17:43:12.435Z,44.02
2019-06-26T17:45:42.290Z,44.72
2019-06-26T17:48:15.769Z,44.18
2019-06-26T17:50:50.891Z,44.61
2019-06-26T17:53:24.659Z,44.31
2019-06-26T17:55:57.031Z,44.63
2019-06-26T17:58:31.236Z,45.23
2019-06-26T18:01:03.603Z,45.58
2019-06-26T18:03:36.822Z,46.19
2019-06-26T18:06:09.744Z,46.33
2019-06-26T18:08:45.032Z,46.77
2019-06-26T18:11:20.796Z,46.78
2019-06-26T18:13:53.831Z,47.37
2019-06-26T18:16:46.980Z,47.82
2019-06-26T18:19:38.082Z,48.38
2019-06-26T18:22:12.811Z,48.40
2019-06-26T18:24:47.951Z,47.97
2019-06-26T18:27:21.156Z,48.40
2019-06-26T18:29:55.135Z,48.10
2019-06-26T18:32:31.932Z,48.39
2019-06-26T18:35:07.427Z,48.78
2019-06-26T18:37:50.684Z,48.69
2019-06-26T18:40:25.698Z,49.12
2019-06-26T18:43:02.317Z,48.83
2019-06-26T18:45:36.200Z,49.09
2019-06-26T18:48:09.894Z,49.06
2019-06-26T18:50:43.829Z,49.23
2019-06-26T18:53:21.362Z,49.27
2019-06-26T18:55:55.933Z,49.75
2019-06-26T18:58:32.998Z,49.69
2019-06-26T19:01:07.727Z,49.82
2019-06-26T19:03:45.057Z,49.59
2019-06-26T19:06:18.065Z,49.17
2019-06-26T19:08:53.981Z,48.80
2019-06-26T19:11:29.841Z,48.57
2019-06-26T19:14:08.955Z,48.54
2019-06-26T19:16:50.590Z,48.76
2019-06-26T19:19:25.460Z,48.98
2019-06-26T19:22:23.377Z,49.25
2019-06-26T19:24:58.279Z,49.53
2019-06-26T19:27:39.629Z,49.50
2019-06-26T19:30:14.239Z,49.94
2019-06-26T19:32:52.628Z,50.02
2019-06-26T19:35:30.264Z,50.24
2019-06-26T19:38:03.548Z,50.55
2019-06-26T19:40:48.513Z,50.78
2019-06-26T19:43:24.695Z,51.12
2019-06-26T19:46:21.500Z,51.49
2019-06-26T19:48:57.507Z,52.13
2019-06-26T19:51:32.723Z,52.69
2019-06-26T19:54:08.780Z,53.02
2019-06-26T19:56:44.948Z,53.17
2019-06-26T19:59:19.086Z,53.22
2019-06-26T20:01:52.991Z,53.69
2019-06-26T20:04:29.118Z,53.59
2019-06-26T20:07:04.062Z,53.50
2019-06-26T20:10:06.058Z,53.51
2019-06-26T20:12:44.506Z,53.53
2019-06-26T20:15:20.352Z,53.07
2019-06-26T20:17:59.462Z,52.93
2019-06-26T20:20:33.745Z,53.16
2019-06-26T20:23:08.630Z,53.35
2019-06-26T20:25:42.853Z,53.09
2019-06-26T20:28:18.104Z,53.27
2019-06-26T20:30:51.945Z,53.15
2019-06-26T20:33:25.134Z,53.40
2019-06-26T20:35:59.898Z,53.68
2019-06-26T20:38:34.424Z,54.05
2019-06-26T20:41:08.295Z,54.32
2019-06-26T20:43:43.690Z,54.51
2019-06-26T20:46:23.614Z,54.54
2019-06-26T20:48:57.464Z,55.09
2019-06-26T20:51:33.107Z,55.12
2019-06-26T20:54:07.247Z,55.03
2019-06-26T20:57:02.278Z,55.13
2019-06-26T20:59:36.731Z,55.31
2019-06-26T21:02:10.184Z,54.74
2019-06-26T21:04:42.399Z,55.34
2019-06-26T21:07:15.950Z,56.16
2019-06-26T21:09:51.468Z,56.72
2019-06-26T21:12:24.692Z,57.12
2019-06-26T21:14:58.417Z,57.29
2019-06-26T21:17:32.580Z,57.60
2019-06-26T21:20:08.008Z,57.54
2019-06-26T21:22:42.298Z,57.70
2019-06-26T21:25:18.941Z,57.70
2019-06-26T21:27:52.637Z,57.87
2019-06-26T21:30:25.534Z,57.52
2019-06-26T21:32:58.124Z,57.80
2019-06-26T21:35:32.103Z,57.56
2019-06-26T21:38:04.814Z,57.21
2019-06-26T21:40:37.140Z,56.80
2019-06-26T21:43:12.594Z,56.97
2019-06-26T21:45:45.929Z,57.01
2019-06-26T21:48:21.739Z,56.95
2019-06-26T21:50:57.602Z,56.29
2019-06-26T21:53:29.828Z,56.65
2019-06-26T21:56:21.905Z,57.04
2019-06-26T21:59:14.857Z,56.74
2019-06-26T22:02:06.375Z,56.98
2019-06-26T22:04:54.358Z,57.06
2019-06-26T22:07:29.889Z,56.97
2019-06-26T22:10:10.280Z,56.75
2019-06-26T22:12:45.946Z,57.28
2019-06-26T22:15:19.871Z,57.15
2019-06-26T22:17:53.586Z,56.65
2019-06-26T22:20:26.788Z,56.52
2019-06-26T22:22:59.493Z,56.45
2019-06-26T22:25:46.660Z,56.49
2019-06-26T22:28:09.675Z,56.91
2019-06-26T22:30:44.388Z,56.82
2019-06-26T22:33:16.731Z,57.13
2019-06-26T22:35:49.917Z,57.17
2019-06-26T22:38:24.023Z,57.37
2019-06-26T22:40:57.163Z,57.57
2019-06-26T22:43:32.030Z,58.08
2019-06-26T22:46:05.424Z,58.26
2019-06-26T22:48:39.797Z,58.32
2019-06-26T22:51:13.205Z,59.19
2019-06-26T22:53:48.229Z,59.49
2019-06-26T22:56:21.537Z,59.83
2019-06-26T22:58:55.378Z,59.53
2019-06-26T23:01:28.315Z,59.23
2019-06-26T23:04:01.891Z,59.29
2019-06-26T23:06:37.414Z,59.53
2019-06-26T23:09:11.689Z,59.14
2019-06-26T23:11:44.216Z,59.03
2019-06-26T23:14:25.723Z,59.45
2019-06-26T23:17:00.499Z,59.41
2019-06-26T23:19:33.030Z,59.68
2019-06-26T23:22:05.664Z,60.19
2019-06-26T23:24:38.331Z,60.58
2019-06-26T23:27:11.871Z,60.65
2019-06-26T23:29:44.787Z,60.96
2019-06-26T23:32:19.166Z,61.14
2019-06-26T23:34:51.598Z,60.43
2019-06-26T23:37:25.442Z,59.77
2019-06-26T23:39:58.160Z,60.37
2019-06-26T23:42:30.393Z,60.00
2019-06-26T23:45:05.786Z,59.35
2019-06-26T23:47:39.950Z,58.67
2019-06-26T23:50:12.557Z,58.03
2019-06-26T23:52:45.925Z,57.61
2019-06-26T23:55:20.153Z,57.90
2019-06-26T23:57:59.011Z,57.75
